Terminal Aerodrome Forecast
Issued by NWS

Home | Current Version | Previous Version | Text Only | Print | Product List | Glossary On
Versions: 1 2 3 4 5 6 7 8 9 10 11 12 13
000
FTUS45 KABQ 201100
TAFSAF
TAF
KSAF 201125Z 2012/2112 02005KT P6SM SCT090
     FM201900 13009KT P6SM VCSH SCT070
     FM202200 14011KT P6SM VCTS BKN070CB
     FM210100 12008KT P6SM BKN070
     FM210700 02005KT P6SM BKN080=

USA.gov is the U.S. government's official web portal to all federal, state and local government web resources and services.